Time;durP1;ratioP1;P1;durP2;ratioP2;P2;SDS_P1;SDS_P2;PMS_P1;PMS_P2;Temp;Humidity;BMP_temperature;BMP_pressure;BME280_temperature;BME280_humidity;BME280_pressure;Samples;Min_cycle;Max_cycle;Signal;HPM_P1;HPM_P2
2022/07/26 00:02:05;;;;;;;4.90;2.80;;;18.70;96.10;;;;;;4972456;28;20584;-52
2022/07/26 00:04:32;;;;;;;8.23;3.13;;;18.70;75.10;;;;;;4974812;28;20560;-50
2022/07/26 00:06:59;;;;;;;8.70;4.13;;;18.70;73.00;;;;;;4970681;28;20592;-51
2022/07/26 00:09:25;;;;;;;3.87;3.53;;;18.70;76.50;;;;;;4976119;28;20538;-50
2022/07/26 00:11:52;;;;;;;3.97;3.37;;;18.70;72.80;;;;;;4972751;28;20903;-52
2022/07/26 00:14:19;;;;;;;14.40;3.70;;;18.70;66.30;;;;;;4974458;28;20493;-51
2022/07/26 00:16:46;;;;;;;4.23;3.70;;;18.70;66.90;;;;;;4972881;28;20515;-51
2022/07/26 00:19:13;;;;;;;6.03;3.60;;;18.60;64.20;;;;;;4975298;28;20490;-51
2022/07/26 00:21:40;;;;;;;6.20;3.73;;;18.70;62.90;;;;;;4974870;28;20500;-52
2022/07/26 00:24:07;;;;;;;6.43;3.90;;;18.60;59.30;;;;;;4973875;28;20999;-51
2022/07/26 00:26:34;;;;;;;7.93;4.27;;;18.70;55.80;;;;;;4971943;28;21091;-52
2022/07/26 00:29:03;;;;;;;5.10;3.90;;;18.70;54.30;;;;;;4971994;28;20489;-51
2022/07/26 00:31:29;;;;;;;5.27;3.30;;;18.70;54.20;;;;;;4970207;28;20477;-51
2022/07/26 00:33:57;;;;;;;6.93;3.97;;;18.70;52.90;;;;;;4972174;28;20552;-51
2022/07/26 00:36:24;;;;;;;6.13;4.07;;;18.70;49.40;;;;;;4972920;28;20512;-51
2022/07/26 00:38:51;;;;;;;7.93;4.53;;;18.70;49.90;;;;;;4973565;28;20465;-51
2022/07/26 00:41:18;;;;;;;6.77;4.00;;;18.70;45.70;;;;;;4972802;28;20504;-50
2022/07/26 00:43:57;;;;;;;4.60;4.00;;;18.70;43.10;;;;;;4974886;28;20484;-51
2022/07/26 00:46:24;;;;;;;4.87;4.10;;;18.70;42.50;;;;;;4974413;28;20564;-50
2022/07/26 00:48:50;;;;;;;5.07;4.00;;;18.70;38.20;;;;;;4974033;28;20505;-51
2022/07/26 00:51:19;;;;;;;7.60;4.47;;;18.70;37.80;;;;;;4965307;28;20580;-50
2022/07/26 00:53:48;;;;;;;4.47;4.10;;;18.70;34.20;;;;;;4972879;28;20831;-50
2022/07/26 00:56:15;;;;;;;4.10;3.80;;;18.70;36.80;;;;;;4972777;28;20565;-51
2022/07/26 00:58:42;;;;;;;5.57;3.90;;;18.70;34.40;;;;;;4973444;28;20473;-52
2022/07/26 01:01:09;;;;;;;5.37;4.23;;;18.70;33.30;;;;;;4974037;28;20497;-51
2022/07/26 01:03:36;;;;;;;7.03;3.60;;;18.70;31.80;;;;;;4974212;28;20548;-50
2022/07/26 01:06:02;;;;;;;4.40;4.00;;;18.70;28.60;;;;;;4971205;28;20508;-51
2022/07/26 01:08:31;;;;;;;3.90;3.70;;;18.70;27.50;;;;;;4972966;28;20564;-51
2022/07/26 01:10:57;;;;;;;6.20;4.00;;;18.70;28.10;;;;;;4973194;28;20542;-52
2022/07/26 01:13:24;;;;;;;6.37;4.03;;;18.70;25.50;;;;;;4974190;28;20981;-50
2022/07/26 01:15:50;;;;;;;6.90;4.63;;;18.70;26.10;;;;;;4971821;28;20573;-50
2022/07/26 01:18:17;;;;;;;4.70;4.20;;;18.70;23.50;;;;;;4974942;28;20485;-50
2022/07/26 01:20:44;;;;;;;5.83;5.10;;;18.70;25.40;;;;;;4972426;28;20500;-51
2022/07/26 01:23:13;;;;;;;5.23;4.73;;;18.70;23.80;;;;;;4970243;28;20869;-51
2022/07/26 01:25:39;;;;;;;10.23;5.00;;;18.70;22.80;;;;;;4965476;28;20976;-50
2022/07/26 01:28:06;;;;;;;5.00;4.60;;;18.70;73.40;;;;;;4972401;28;20576;-51
2022/07/26 01:30:32;;;;;;;5.90;5.27;;;18.70;91.20;;;;;;4973562;28;20887;-51
2022/07/26 01:32:59;;;;;;;6.40;5.77;;;18.70;99.30;;;;;;4973028;28;20516;-51
2022/07/26 01:35:25;;;;;;;7.23;4.87;;;18.70;99.90;;;;;;4967708;28;20930;-50
2022/07/26 01:37:52;;;;;;;6.60;6.00;;;18.70;99.90;;;;;;4973192;28;20568;-51
2022/07/26 01:40:20;;;;;;;8.73;5.10;;;18.70;99.90;;;;;;4970816;28;20517;-52
2022/07/26 01:42:47;;;;;;;5.97;5.43;;;18.70;99.90;;;;;;4971615;28;20553;-51
2022/07/26 01:45:14;;;;;;;6.20;5.70;;;18.70;99.90;;;;;;4970625;28;20626;-51
2022/07/26 01:47:40;;;;;;;5.07;4.60;;;18.70;99.90;;;;;;4972449;28;21087;-52
2022/07/26 01:50:08;;;;;;;7.67;5.73;;;18.70;99.90;;;;;;4973025;28;20556;-51
2022/07/26 01:52:36;;;;;;;8.10;5.53;;;18.70;99.90;;;;;;4971486;28;20524;-50
2022/07/26 01:55:02;;;;;;;10.97;6.93;;;18.70;99.90;;;;;;4971076;28;20493;-52
2022/07/26 01:57:30;;;;;;;7.00;6.40;;;18.70;99.90;;;;;;4967641;28;21063;-51
2022/07/26 01:59:57;;;;;;;6.33;5.77;;;18.70;99.90;;;;;;4973651;28;20552;-49
2022/07/26 02:02:23;;;;;;;6.63;6.03;;;18.70;99.90;;;;;;4970718;28;21015;-51
2022/07/26 02:04:59;;;;;;;6.33;5.80;;;18.70;99.90;;;;;;4970466;28;20565;-51
2022/07/26 02:07:25;;;;;;;9.70;7.20;;;18.70;99.90;;;;;;4971340;28;20501;-50
2022/07/26 02:09:52;;;;;;;7.43;6.73;;;18.70;99.90;;;;;;4972506;28;20925;-52
2022/07/26 02:12:18;;;;;;;7.80;6.53;;;18.70;99.90;;;;;;4971623;28;21263;-51
2022/07/26 02:14:46;;;;;;;7.93;6.57;;;18.70;99.90;;;;;;4968532;28;20674;-51
2022/07/26 02:17:13;;;;;;;8.00;6.40;;;18.70;99.90;;;;;;4969622;28;20571;-51
2022/07/26 02:19:40;;;;;;;6.83;6.13;;;18.70;99.90;;;;;;4973229;28;20484;-51
2022/07/26 02:22:07;;;;;;;7.40;6.70;;;18.60;99.90;;;;;;4971667;28;20465;-50
2022/07/26 02:24:34;;;;;;;7.70;6.73;;;18.60;99.90;;;;;;4971088;28;20558;-51
2022/07/26 02:27:02;;;;;;;7.30;6.60;;;18.60;99.90;;;;;;4973110;28;20580;-51
2022/07/26 02:29:30;;;;;;;7.47;6.50;;;18.60;99.90;;;;;;4972419;28;20469;-51
2022/07/26 02:31:58;;;;;;;6.90;6.20;;;18.60;99.90;;;;;;4973533;28;20553;-50
2022/07/26 02:34:25;;;;;;;8.87;7.50;;;18.50;99.90;;;;;;4976406;28;20466;-51
2022/07/26 02:36:52;;;;;;;7.73;6.90;;;18.50;99.90;;;;;;4972616;28;20564;-50
2022/07/26 02:39:18;;;;;;;7.87;6.20;;;18.50;99.90;;;;;;4973036;28;20516;-51
2022/07/26 02:41:45;;;;;;;7.47;6.70;;;18.50;99.90;;;;;;4970945;28;20469;-51
2022/07/26 02:44:11;;;;;;;7.13;6.10;;;18.50;99.90;;;;;;4972383;28;20516;-51
2022/07/26 02:46:38;;;;;;;7.67;6.77;;;18.50;99.90;;;;;;4971806;28;21086;-51
2022/07/26 02:49:06;;;;;;;10.17;7.10;;;18.40;99.90;;;;;;4967748;28;20568;-50
2022/07/26 02:51:33;;;;;;;6.70;6.03;;;18.40;99.90;;;;;;4970875;28;20588;-50
2022/07/26 02:53:59;;;;;;;7.10;6.47;;;18.40;99.90;;;;;;4968326;28;20965;-50
2022/07/26 02:56:26;;;;;;;7.90;7.20;;;18.40;99.90;;;;;;4972056;28;20568;-51
2022/07/26 02:58:52;;;;;;;10.87;6.93;;;18.40;99.90;;;;;;4971449;28;20549;-50
2022/07/26 03:01:19;;;;;;;7.60;6.80;;;18.30;99.90;;;;;;4972560;28;20477;-51
2022/07/26 03:03:45;;;;;;;8.70;6.70;;;18.30;99.90;;;;;;4971046;28;20908;-49
2022/07/26 03:06:13;;;;;;;7.20;6.60;;;18.30;99.90;;;;;;4969309;28;20597;-50
2022/07/26 03:08:40;;;;;;;7.13;6.53;;;18.30;99.90;;;;;;4970692;28;20572;-51
2022/07/26 03:11:07;;;;;;;7.17;6.13;;;18.30;99.90;;;;;;4971443;28;20552;-51
2022/07/26 03:13:33;;;;;;;7.97;6.70;;;18.30;99.90;;;;;;4972164;28;20468;-51
2022/07/26 03:16:00;;;;;;;7.70;6.50;;;18.30;99.90;;;;;;4973020;28;20541;-56
2022/07/26 03:18:27;;;;;;;7.20;6.33;;;18.20;99.90;;;;;;4971697;28;20489;-50
2022/07/26 03:20:54;;;;;;;11.33;6.90;;;18.20;99.90;;;;;;4971476;28;20512;-50
2022/07/26 03:23:22;;;;;;;6.53;6.03;;;18.20;99.90;;;;;;4971731;28;20519;-51
2022/07/26 03:25:48;;;;;;;6.43;5.83;;;18.20;99.90;;;;;;4971406;28;20560;-49
2022/07/26 03:28:15;;;;;;;8.20;6.77;;;18.10;99.90;;;;;;4973249;28;20604;-51
2022/07/26 03:30:41;;;;;;;6.53;5.93;;;18.10;99.90;;;;;;4977281;28;20501;-50
2022/07/26 03:33:08;;;;;;;7.27;6.17;;;18.20;99.90;;;;;;4975996;28;20548;-51
2022/07/26 03:35:34;;;;;;;10.10;6.47;;;18.10;99.90;;;;;;4971515;28;20564;-50
2022/07/26 03:38:01;;;;;;;8.40;6.30;;;18.10;99.90;;;;;;4968224;28;20553;-50
2022/07/26 03:40:29;;;;;;;6.23;5.73;;;18.10;99.90;;;;;;4975644;28;20552;-50
2022/07/26 03:42:56;;;;;;;6.50;5.90;;;18.10;99.90;;;;;;4974119;28;20472;-51
2022/07/26 03:45:22;;;;;;;8.13;6.30;;;18.10;99.90;;;;;;4969557;28;20896;-50
2022/07/26 03:47:49;;;;;;;6.93;6.07;;;18.00;99.90;;;;;;4978380;28;20576;-51
2022/07/26 03:50:15;;;;;;;7.63;6.23;;;18.00;99.90;;;;;;4978446;28;20576;-51
2022/07/26 03:52:42;;;;;;;7.63;5.73;;;18.00;99.90;;;;;;4975098;28;20559;-50
2022/07/26 03:57:55;;;;;;;9.13;6.07;;;17.90;99.90;;;;;;4980685;28;20463;-50
2022/07/26 04:00:21;;;;;;;8.23;6.10;;;17.90;99.90;;;;;;4977004;28;20492;-50
2022/07/26 04:02:48;;;;;;;7.90;5.13;;;17.90;99.90;;;;;;4978022;28;20552;-51
2022/07/26 04:05:15;;;;;;;6.20;5.50;;;17.90;99.90;;;;;;4977462;28;20468;-50
2022/07/26 04:07:42;;;;;;;7.73;6.33;;;17.90;99.90;;;;;;4977170;28;20576;-50
2022/07/26 04:10:09;;;;;;;10.40;5.70;;;17.80;72.50;;;;;;4977060;28;20871;-50
2022/07/26 04:12:36;;;;;;;6.00;5.43;;;17.80;97.50;;;;;;4976421;28;20500;-50
2022/07/26 04:15:05;;;;;;;7.70;6.63;;;17.80;86.70;;;;;;4974682;28;20994;-51
2022/07/26 04:17:36;;;;;;;14.63;5.07;;;17.80;20.40;;;;;;4979162;28;20493;-51
2022/07/26 04:20:03;;;;;;;8.33;5.10;;;17.80;25.00;;;;;;4976527;28;20564;-50
2022/07/26 04:22:30;;;;;;;10.80;5.53;;;17.80;29.80;;;;;;4975867;28;20985;-51
2022/07/26 04:24:57;;;;;;;7.30;4.73;;;17.80;29.80;;;;;;4976987;28;20493;-51
2022/07/26 04:27:24;;;;;;;6.27;5.63;;;17.70;39.90;;;;;;4976173;28;20571;-49
2022/07/26 04:29:50;;;;;;;7.67;5.53;;;17.70;40.80;;;;;;4976235;28;20465;-50
2022/07/26 04:32:18;;;;;;;8.70;5.07;;;17.70;41.20;;;;;;4976249;28;20560;-55
2022/07/26 04:34:45;;;;;;;5.50;5.00;;;17.70;44.10;;;;;;4975538;28;20552;-50
2022/07/26 04:37:11;;;;;;;6.70;5.50;;;17.70;42.70;;;;;;4977187;28;20542;-51
2022/07/26 04:39:38;;;;;;;5.13;4.63;;;17.60;50.60;;;;;;4976086;28;20544;-50
2022/07/26 04:42:04;;;;;;;8.87;4.90;;;17.70;43.50;;;;;;4971909;28;21014;-51
2022/07/26 04:44:31;;;;;;;5.60;4.30;;;17.60;54.20;;;;;;4972837;28;20543;-51
2022/07/26 04:46:57;;;;;;;6.43;5.03;;;17.70;44.30;;;;;;4972655;28;20513;-51
2022/07/26 04:49:25;;;;;;;8.83;4.90;;;17.70;59.90;;;;;;4974754;28;21077;-52
2022/07/26 04:51:52;;;;;;;6.87;4.50;;;17.70;76.20;;;;;;4973950;28;20547;-52
2022/07/26 04:54:19;;;;;;;9.73;4.60;;;17.70;82.20;;;;;;4973975;28;20500;-51
2022/07/26 04:56:46;;;;;;;6.27;4.40;;;17.70;81.20;;;;;;4972497;28;20498;-51
2022/07/26 04:59:12;;;;;;;9.70;4.90;;;17.70;88.80;;;;;;4972139;28;20548;-52
2022/07/26 05:01:39;;;;;;;8.27;5.20;;;17.70;94.10;;;;;;4974025;28;20901;-49
2022/07/26 05:04:06;;;;;;;11.23;5.20;;;17.70;95.40;;;;;;4973664;28;21042;-51
2022/07/26 05:06:33;;;;;;;5.53;4.50;;;17.70;93.30;;;;;;4972870;28;20572;-52
2022/07/26 05:09:00;;;;;;;6.20;4.53;;;17.70;91.90;;;;;;4969349;28;20516;-50
2022/07/26 05:11:27;;;;;;;6.97;4.53;;;17.70;99.90;;;;;;4973232;28;20488;-51
2022/07/26 05:13:53;;;;;;;5.97;4.60;;;17.80;99.90;;;;;;4972913;28;20539;-51
2022/07/26 05:16:20;;;;;;;8.70;4.13;;;17.80;99.90;;;;;;4973863;28;20576;-51
2022/07/26 05:18:46;;;;;;;8.73;4.27;;;17.80;99.90;;;;;;4971678;28;20512;-51
2022/07/26 05:21:13;;;;;;;6.70;3.70;;;17.80;99.90;;;;;;4970045;28;20556;-51
2022/07/26 05:23:41;;;;;;;5.83;3.90;;;17.70;99.90;;;;;;4972565;28;20564;-50
2022/07/26 05:26:07;;;;;;;7.77;4.27;;;17.80;99.90;;;;;;4972694;28;20584;-51
2022/07/26 05:28:34;;;;;;;5.70;3.80;;;17.80;99.90;;;;;;4972529;28;20576;-51
2022/07/26 05:31:01;;;;;;;5.13;3.33;;;17.80;99.90;;;;;;4971889;28;20466;-51
2022/07/26 05:33:27;;;;;;;8.63;3.63;;;17.80;99.90;;;;;;4974850;28;20449;-50
2022/07/26 05:35:54;;;;;;;7.03;3.93;;;17.80;99.90;;;;;;4972925;28;21033;-50
2022/07/26 05:38:20;;;;;;;4.80;3.80;;;17.80;99.90;;;;;;4972419;28;20541;-50
2022/07/26 05:40:49;;;;;;;10.53;3.50;;;17.90;99.90;;;;;;4973304;28;20973;-50
2022/07/26 05:43:15;;;;;;;4.47;2.77;;;17.90;99.90;;;;;;4971956;28;20600;-51
2022/07/26 05:45:42;;;;;;;7.57;3.87;;;17.90;99.90;;;;;;4967503;28;20528;-51
2022/07/26 05:48:08;;;;;;;3.37;2.80;;;18.00;99.90;;;;;;4974461;28;20616;-51
2022/07/26 05:50:35;;;;;;;5.20;2.73;;;18.00;99.90;;;;;;4973784;28;20956;-51
2022/07/26 05:53:01;;;;;;;7.90;3.40;;;18.00;99.90;;;;;;4971917;28;20548;-50
2022/07/26 05:55:28;;;;;;;10.17;3.77;;;18.10;99.90;;;;;;4973925;28;20488;-50
2022/07/26 05:57:56;;;;;;;3.60;3.20;;;18.00;99.90;;;;;;4973679;28;20644;-51
2022/07/26 06:00:22;;;;;;;8.13;3.17;;;18.10;99.90;;;;;;4970504;28;20560;-51
2022/07/26 06:02:49;;;;;;;4.13;3.20;;;18.20;99.90;;;;;;4972391;28;20556;-50
2022/07/26 06:05:16;;;;;;;4.40;3.00;;;18.20;99.90;;;;;;4973913;28;20532;-50
2022/07/26 06:07:43;;;;;;;10.13;3.40;;;18.30;99.90;;;;;;4971258;28;20523;-51
2022/07/26 06:10:10;;;;;;;8.63;2.87;;;18.30;99.90;;;;;;4972245;28;20576;-50
2022/07/26 06:12:36;;;;;;;6.47;3.43;;;18.40;99.90;;;;;;4971854;28;20534;-51
2022/07/26 06:15:05;;;;;;;8.07;3.40;;;18.50;99.90;;;;;;4974036;28;20485;-51
2022/07/26 06:17:31;;;;;;;6.77;3.13;;;18.50;20.70;;;;;;4973029;28;20576;-50
2022/07/26 06:19:58;;;;;;;9.90;3.70;;;18.50;80.30;;;;;;4971557;28;20548;-50
2022/07/26 06:22:25;;;;;;;12.00;3.33;;;18.60;99.90;;;;;;4972740;28;20449;-52
2022/07/26 06:24:52;;;;;;;7.33;2.83;;;18.60;32.90;;;;;;4972650;28;20548;-50
2022/07/26 06:27:18;;;;;;;5.27;2.60;;;18.70;32.80;;;;;;4973127;28;20556;-51
2022/07/26 06:29:47;;;;;;;5.97;3.00;;;18.70;32.20;;;;;;4971186;28;20584;-50
2022/07/26 06:32:15;;;;;;;7.90;4.00;;;18.70;36.30;;;;;;4972200;28;20461;-50
2022/07/26 06:34:41;;;;;;;7.43;2.63;;;18.80;42.50;;;;;;4971723;28;20496;-51
2022/07/26 06:37:08;;;;;;;7.43;2.77;;;18.80;48.70;;;;;;4970993;28;20576;-51
2022/07/26 06:39:34;;;;;;;13.30;3.17;;;18.90;46.40;;;;;;4972649;28;20933;-49
2022/07/26 06:42:01;;;;;;;6.40;2.67;;;18.90;45.80;;;;;;4971344;28;20557;-51
2022/07/26 06:44:27;;;;;;;6.43;2.70;;;19.00;56.70;;;;;;4970259;28;20552;-51
2022/07/26 06:46:54;;;;;;;18.80;3.20;;;19.00;65.90;;;;;;4972497;28;20580;-51
2022/07/26 06:49:22;;;;;;;4.83;2.43;;;19.00;67.00;;;;;;4972646;28;20598;-51
2022/07/26 06:51:48;;;;;;;7.53;2.70;;;19.10;78.00;;;;;;4971314;28;20556;-51
2022/07/26 06:54:15;;;;;;;7.23;2.63;;;19.10;83.10;;;;;;4973337;28;20541;-51
2022/07/26 06:56:41;;;;;;;6.37;3.00;;;19.20;88.00;;;;;;4971701;28;20517;-51
2022/07/26 06:59:08;;;;;;;5.53;2.37;;;19.20;96.30;;;;;;4973353;28;21016;-51
2022/07/26 07:01:35;;;;;;;8.30;2.47;;;19.30;95.60;;;;;;4971669;28;20496;-52
2022/07/26 07:04:01;;;;;;;8.40;2.40;;;19.30;99.90;;;;;;4970051;28;20944;-51
2022/07/26 07:06:29;;;;;;;8.67;2.60;;;19.40;99.00;;;;;;4967550;28;20584;-50
2022/07/26 07:08:55;;;;;;;10.43;2.53;;;19.50;99.90;;;;;;4972435;28;20591;-50
2022/07/26 07:11:22;;;;;;;12.30;3.50;;;19.70;99.90;;;;;;4970885;28;20991;-50
2022/07/26 07:13:48;;;;;;;7.17;3.03;;;19.90;99.90;;;;;;4972591;28;21002;-51
2022/07/26 07:16:15;;;;;;;10.90;3.30;;;19.90;99.90;;;;;;4969892;28;20608;-51
2022/07/26 07:18:41;;;;;;;8.93;2.93;;;20.00;99.90;;;;;;4972197;28;20525;-51
2022/07/26 07:21:08;;;;;;;12.53;3.00;;;20.00;99.90;;;;;;4966625;28;21034;-51
2022/07/26 07:23:36;;;;;;;7.20;2.40;;;20.00;99.90;;;;;;4968752;28;20559;-51
2022/07/26 07:26:02;;;;;;;3.50;2.13;;;20.10;99.90;;;;;;4972224;28;20552;-51
2022/07/26 07:28:32;;;;;;;5.50;2.60;;;20.00;99.90;;;;;;4970966;28;20560;-51
2022/07/26 07:30:58;;;;;;;7.37;2.10;;;20.10;99.90;;;;;;4971181;28;20500;-50
2022/07/26 07:33:25;;;;;;;3.50;2.43;;;20.10;99.90;;;;;;4971263;28;20556;-52
2022/07/26 07:35:52;;;;;;;9.37;2.93;;;20.10;99.90;;;;;;4970500;28;20556;-50
2022/07/26 07:38:19;;;;;;;7.13;2.77;;;20.20;99.90;;;;;;4971259;28;20463;-51
2022/07/26 07:40:46;;;;;;;9.70;2.50;;;20.30;99.90;;;;;;4972107;28;20560;-51
2022/07/26 07:43:13;;;;;;;9.53;2.37;;;20.40;99.90;;;;;;4971326;28;20576;-51
2022/07/26 07:45:40;;;;;;;5.90;2.17;;;20.50;99.90;;;;;;4973091;28;20528;-50
2022/07/26 07:48:06;;;;;;;7.20;2.30;;;20.50;99.90;;;;;;4970970;28;20877;-51
2022/07/26 07:50:33;;;;;;;3.20;2.37;;;20.50;99.90;;;;;;4969505;28;20575;-52
2022/07/26 07:52:59;;;;;;;7.47;2.00;;;20.40;99.90;;;;;;4970514;28;21026;-51
2022/07/26 07:55:26;;;;;;;7.63;2.43;;;20.30;99.90;;;;;;4969247;28;20501;-51
2022/07/26 07:57:54;;;;;;;10.23;2.20;;;20.30;99.90;;;;;;4971717;28;20480;-50
2022/07/26 08:00:21;;;;;;;4.07;1.80;;;20.40;99.90;;;;;;4972941;28;20512;-51
2022/07/26 08:02:47;;;;;;;9.77;2.23;;;20.40;99.90;;;;;;4971646;28;20552;-50
2022/07/26 08:05:14;;;;;;;3.80;2.33;;;20.30;99.90;;;;;;4970390;28;20600;-51
2022/07/26 08:07:41;;;;;;;8.90;2.73;;;20.30;99.90;;;;;;4968377;28;20584;-51
2022/07/26 08:10:08;;;;;;;7.50;2.17;;;20.30;99.90;;;;;;4963824;28;20506;-51
2022/07/26 08:12:35;;;;;;;7.07;2.53;;;20.30;99.90;;;;;;4971779;28;20450;-51
2022/07/26 08:15:04;;;;;;;5.17;2.10;;;20.40;99.90;;;;;;4971623;28;20562;-51
2022/07/26 08:17:30;;;;;;;3.77;1.60;;;20.50;99.90;;;;;;4974637;28;20567;-51
2022/07/26 08:19:57;;;;;;;6.73;2.17;;;20.60;99.90;;;;;;4974439;28;20504;-52
2022/07/26 08:22:23;;;;;;;2.50;1.73;;;20.70;99.90;;;;;;4973809;28;20556;-50
2022/07/26 08:24:51;;;;;;;6.23;2.20;;;20.90;99.90;;;;;;4975709;28;20629;-49
2022/07/26 08:27:18;;;;;;;7.17;2.30;;;21.00;99.90;;;;;;4974856;28;20477;-50
2022/07/26 08:29:44;;;;;;;4.20;1.93;;;21.10;99.90;;;;;;4975280;28;20564;-51
2022/07/26 08:32:12;;;;;;;7.50;2.97;;;21.20;31.80;;;;;;4973284;28;20560;-49
2022/07/26 08:34:39;;;;;;;4.90;1.73;;;21.30;47.10;;;;;;4972718;28;20469;-50
2022/07/26 08:37:06;;;;;;;3.27;1.70;;;21.40;49.40;;;;;;4970557;28;20572;-52
2022/07/26 08:39:33;;;;;;;1.93;1.67;;;21.50;48.70;;;;;;4974213;28;20472;-52
2022/07/26 08:41:59;;;;;;;15.47;2.30;;;21.60;42.50;;;;;;4971221;28;20497;-50
2022/07/26 08:44:26;;;;;;;5.87;1.90;;;21.80;68.80;;;;;;5036882;23;20530;-50
2022/07/26 08:46:53;;;;;;;11.70;1.83;;;21.90;59.10;;;;;;5033368;28;20835;-52
2022/07/26 08:49:20;;;;;;;10.13;2.10;;;21.90;60.70;;;;;;5029925;28;20992;-52
2022/07/26 08:51:47;;;;;;;4.33;1.87;;;21.90;66.50;;;;;;5031777;28;20544;-52
2022/07/26 08:54:15;;;;;;;4.80;1.90;;;21.90;64.20;;;;;;5031738;28;20967;-52
2022/07/26 08:56:49;;;;;;;11.43;2.47;;;21.80;69.80;;;;;;5033782;28;20446;-53
2022/07/26 08:59:17;;;;;;;7.20;2.33;;;21.80;58.70;;;;;;5033384;28;20540;-51
2022/07/26 09:01:55;;;;;;;2.70;1.40;;;21.80;77.70;;;;;;5028118;28;20469;-52
2022/07/26 09:04:27;;;;;;;4.77;1.90;;;22.00;73.50;;;;;;5029983;28;20562;-51
2022/07/26 09:06:58;;;;;;;3.23;1.77;;;22.10;75.30;;;;;;5033182;28;20501;-50
2022/07/26 09:09:26;;;;;;;7.07;1.67;;;22.10;80.90;;;;;;5029107;28;20508;-51
2022/07/26 09:11:54;;;;;;;3.93;1.67;;;22.00;77.70;;;;;;5028371;28;20494;-50
2022/07/26 09:14:20;;;;;;;10.13;1.77;;;22.30;82.00;;;;;;5032050;28;20529;-52
2022/07/26 09:16:58;;;;;;;3.97;1.97;;;22.30;81.10;;;;;;5031836;28;20463;-51
2022/07/26 09:19:27;;;;;;;11.83;2.40;;;22.20;90.30;;;;;;5032472;28;20953;-52
2022/07/26 09:21:56;;;;;;;4.90;1.80;;;22.20;85.40;;;;;;5037306;28;21165;-52
2022/07/26 09:24:31;;;;;;;8.70;2.30;;;22.10;82.40;;;;;;5023974;28;20510;-51
2022/07/26 09:26:59;;;;;;;3.60;1.87;;;22.10;86.60;;;;;;5033139;28;20441;-52
2022/07/26 09:29:27;;;;;;;4.47;2.00;;;22.00;90.80;;;;;;5030927;28;20478;-52
2022/07/26 09:32:09;;;;;;;5.00;2.13;;;22.10;89.00;;;;;;5026890;28;20467;-51
2022/07/26 09:34:39;;;;;;;12.90;2.13;;;22.50;96.70;;;;;;5026616;28;20879;-52
2022/07/26 09:37:06;;;;;;;4.20;1.73;;;22.70;96.00;;;;;;5031496;28;20924;-52
2022/07/26 09:39:32;;;;;;;5.00;2.10;;;22.70;99.70;;;;;;5031298;28;20552;-53
2022/07/26 09:42:06;;;;;;;4.97;2.50;;;22.60;97.70;;;;;;5031878;28;20799;-51
2022/07/26 09:44:40;;;;;;;4.07;1.47;;;22.50;92.10;;;;;;5032721;28;20478;-52
2022/07/26 09:47:06;;;;;;;2.80;1.60;;;22.30;99.90;;;;;;5030494;28;20462;-53
2022/07/26 09:49:33;;;;;;;3.50;1.60;;;22.20;99.90;;;;;;5033457;28;20482;-52
2022/07/26 09:52:01;;;;;;;7.30;1.87;;;22.10;99.90;;;;;;5031615;28;20509;-52
2022/07/26 09:54:32;;;;;;;6.93;1.80;;;22.10;99.90;;;;;;5032132;28;20482;-52
2022/07/26 09:56:59;;;;;;;2.90;1.60;;;22.00;99.90;;;;;;5031412;28;20884;-53
2022/07/26 09:59:27;;;;;;;1.30;1.20;;;22.00;99.30;;;;;;5032310;28;20463;-53
2022/07/26 10:01:56;;;;;;;4.67;1.70;;;21.90;99.40;;;;;;5024605;28;20498;-52
2022/07/26 10:04:23;;;;;;;6.03;1.50;;;21.80;95.10;;;;;;5033384;28;20463;-53
2022/07/26 10:06:50;;;;;;;5.67;1.63;;;21.90;94.50;;;;;;5031913;28;20520;-53
2022/07/26 10:09:19;;;;;;;1.73;1.50;;;22.10;94.10;;;;;;5030050;28;20510;-54
2022/07/26 10:11:52;;;;;;;4.83;1.30;;;22.50;99.30;;;;;;5025088;28;20953;-53
2022/07/26 10:14:40;;;;;;;6.93;1.87;;;22.80;99.90;;;;;;5030938;28;20965;-52
2022/07/26 10:17:49;;;;;;;1.67;1.33;;;23.20;99.90;;;;;;5032635;28;20450;-54
2022/07/26 10:20:39;;;;;;;3.80;1.60;;;23.20;99.90;;;;;;5031571;28;20832;-53
2022/07/26 10:23:35;;;;;;;4.83;1.37;;;23.20;99.90;;;;;;5027837;28;20498;-53
2022/07/26 10:26:05;;;;;;;3.37;1.47;;;23.30;99.90;;;;;;5029693;28;20452;-53
2022/07/26 10:28:34;;;;;;;3.07;1.40;;;23.50;99.90;;;;;;5032145;28;20465;-52
2022/07/26 10:31:28;;;;;;;6.70;1.40;;;23.80;99.90;;;;;;5031587;28;20486;-52
2022/07/26 10:33:56;;;;;;;6.60;1.30;;;24.10;99.90;;;;;;5031091;28;21540;-52
2022/07/26 10:36:28;;;;;;;4.53;1.30;;;24.20;99.90;;;;;;5031324;28;20463;-52
2022/07/26 10:39:07;;;;;;;6.67;2.17;;;24.10;99.90;;;;;;5027526;28;20893;-52
2022/07/26 10:41:38;;;;;;;1.90;1.37;;;24.00;99.90;;;;;;5030625;28;20459;-54
2022/07/26 10:44:20;;;;;;;5.83;1.60;;;23.80;99.90;;;;;;5030644;28;20474;-51
2022/07/26 10:47:14;;;;;;;4.90;1.57;;;23.50;99.90;;;;;;5030235;28;21062;-52
2022/07/26 10:49:44;;;;;;;5.50;1.53;;;23.30;99.90;;;;;;5025907;28;20491;-53
2022/07/26 10:52:17;;;;;;;3.83;1.70;;;23.20;99.90;;;;;;5030333;28;20455;-52
2022/07/26 10:55:14;;;;;;;3.07;1.70;;;23.10;99.90;;;;;;5030977;28;21142;-53
2022/07/26 10:57:43;;;;;;;7.40;1.87;;;23.40;99.90;;;;;;5032417;28;20797;-51
2022/07/26 11:00:16;;;;;;;1.93;1.00;;;23.60;99.90;;;;;;5031691;28;20968;-53
2022/07/26 11:02:44;;;;;;;4.10;1.60;;;23.90;99.90;;;;;;5028438;28;20522;-51
2022/07/26 11:05:13;;;;;;;3.53;1.90;;;24.10;99.90;;;;;;5030619;28;21050;-52
2022/07/26 11:08:07;;;;;;;5.10;1.80;;;24.20;99.90;;;;;;5030111;28;20948;-51
2022/07/26 11:10:36;;;;;;;1.60;1.20;;;24.10;99.90;;;;;;5018474;28;20482;-53
2022/07/26 11:13:16;;;;;;;2.83;1.10;;;24.00;99.90;;;;;;5030427;28;20466;-52
2022/07/26 11:15:46;;;;;;;5.70;1.93;;;23.80;99.90;;;;;;5030044;28;20880;-53
2022/07/26 11:18:19;;;;;;;3.47;1.70;;;23.50;99.90;;;;;;5029231;28;20792;-52
2022/07/26 11:20:48;;;;;;;6.97;1.60;;;23.30;99.90;;;;;;5032296;28;20443;-52
2022/07/26 11:23:27;;;;;;;5.30;1.80;;;23.10;99.90;;;;;;5028670;28;20552;-52
2022/07/26 11:26:05;;;;;;;4.57;1.40;;;22.70;98.70;;;;;;5031913;28;20442;-51
2022/07/26 11:29:01;;;;;;;8.93;1.80;;;22.30;84.70;;;;;;5029494;28;20454;-52
2022/07/26 11:31:34;;;;;;;4.97;1.70;;;22.00;74.20;;;;;;5026879;28;20483;-53
2022/07/26 11:34:02;;;;;;;3.33;1.60;;;21.80;75.30;;;;;;5030606;28;20490;-52
2022/07/26 11:36:37;;;;;;;2.00;1.57;;;21.70;61.20;;;;;;5028974;28;20548;-52
2022/07/26 11:39:06;;;;;;;3.10;1.30;;;21.70;60.20;;;;;;5029543;28;20548;-53
2022/07/26 11:41:32;;;;;;;4.47;1.87;;;21.70;56.90;;;;;;5030839;28;20463;-53
2022/07/26 11:44:00;;;;;;;5.80;1.80;;;21.80;57.00;;;;;;5030226;28;20579;-52
2022/07/26 11:46:36;;;;;;;6.00;1.67;;;22.00;62.90;;;;;;5029436;28;20976;-53
2022/07/26 11:49:04;;;;;;;4.97;2.10;;;22.20;82.30;;;;;;5028997;28;20462;-51
2022/07/26 11:51:32;;;;;;;2.70;1.83;;;22.20;66.70;;;;;;5032677;28;20474;-54
2022/07/26 11:54:02;;;;;;;2.00;1.60;;;22.00;53.90;;;;;;5034229;28;20536;-53
2022/07/26 11:56:30;;;;;;;2.27;1.80;;;21.70;41.00;;;;;;5035034;28;20896;-51
2022/07/26 11:58:57;;;;;;;1.43;1.33;;;21.70;23.80;;;;;;5034570;28;20964;-53
2022/07/26 12:01:26;;;;;;;6.80;1.60;;;21.60;23.80;;;;;;5034591;28;20501;-53
2022/07/26 12:03:54;;;;;;;2.03;1.77;;;21.70;99.90;;;;;;5034228;28;20485;-52
2022/07/26 12:06:23;;;;;;;4.50;1.43;;;21.70;48.20;;;;;;5033276;28;20462;-53
2022/07/26 12:08:52;;;;;;;2.20;1.40;;;21.60;40.70;;;;;;5034803;28;20467;-52
2022/07/26 12:11:19;;;;;;;3.10;1.67;;;21.70;40.90;;;;;;5033708;28;20485;-53
2022/07/26 12:13:56;;;;;;;3.23;1.87;;;22.00;38.50;;;;;;5032035;28;20490;-52
2022/07/26 12:16:41;;;;;;;1.70;1.00;;;22.30;60.20;;;;;;5035122;28;20936;-52
2022/07/26 12:19:10;;;;;;;3.67;1.10;;;22.40;83.00;;;;;;5027519;28;20541;-54
2022/07/26 12:21:39;;;;;;;0.90;0.90;;;22.30;72.90;;;;;;5034536;28;20465;-52
2022/07/26 12:24:06;;;;;;;10.80;1.00;;;22.10;85.70;;;;;;5032018;28;20983;-52
2022/07/26 12:26:33;;;;;;;2.93;1.20;;;21.80;83.80;;;;;;5026637;28;20532;-53
2022/07/26 12:29:23;;;;;;;1.17;1.00;;;21.60;85.30;;;;;;5034355;28;20515;-52
2022/07/26 12:32:01;;;;;;;2.40;1.33;;;21.30;85.80;;;;;;5032515;28;20478;-53
2022/07/26 12:34:28;;;;;;;1.53;1.00;;;21.00;77.10;;;;;;5015127;28;20467;-53
2022/07/26 12:36:55;;;;;;;1.77;1.17;;;20.90;70.40;;;;;;5032137;28;20459;-53
2022/07/26 12:39:21;;;;;;;5.30;1.13;;;20.70;51.00;;;;;;5033849;28;20513;-52
2022/07/26 12:41:49;;;;;;;3.37;1.10;;;20.50;31.10;;;;;;5031979;28;20455;-52
2022/07/26 12:44:17;;;;;;;1.53;0.90;;;20.20;99.90;;;;;;5032477;28;20635;-52
2022/07/26 12:46:44;;;;;;;1.97;0.80;;;20.10;99.90;;;;;;5031308;28;20466;-52
2022/07/26 12:49:12;;;;;;;1.50;1.20;;;20.00;99.90;;;;;;5030335;28;20465;-51
2022/07/26 12:51:39;;;;;;;1.10;1.00;;;19.90;99.90;;;;;;5032879;28;20505;-52
2022/07/26 12:54:06;;;;;;;0.87;0.87;;;19.80;99.90;;;;;;5033540;28;21004;-52
2022/07/26 12:56:32;;;;;;;1.33;0.80;;;19.70;99.90;;;;;;5037559;28;20458;-52